Albal, Spain
Current Conditions -  °F | °C
As of 5:30 AM on Tuesday 21 Oct 2014 (Local Time) from LEVC Reporting Station
Clear Clear  
Wind Chill: 59°   Ceiling: Unl
Heat Index: 59°   Visibility: 6mi
Dew Point: 55°   Wind: 2mph
Humidity: 88%   Direction: NA
Pressure: 30.09"   Gusts: NA
Location:  39.4°N, 0.42°W
Report Text: LEVC 210330Z VRB02KT CAVOK 15/13 Q1019 NOSIG
Loading
Personal Weather Stations






























Interactive Weather Map
Tropical Storm Tracking
New forecast layout! Learn more

10-Day Weather Forecast

Advertisements
Track Severe Weather on mobile